sensor_id;sensor_type;location;lat;lon;timestamp;temperature;humidity
68177;DHT22;56478;50.982;7.032;2023-01-28T00:01:09;3.91;77.31
68177;DHT22;56478;50.982;7.032;2023-01-28T00:03:36;3.84;77.25
68177;DHT22;56478;50.982;7.032;2023-01-28T00:06:07;3.73;77.64
68177;DHT22;56478;50.982;7.032;2023-01-28T00:08:33;3.66;77.81
68177;DHT22;56478;50.982;7.032;2023-01-28T00:11:00;3.56;78.32
68177;DHT22;56478;50.982;7.032;2023-01-28T00:13:26;3.53;78.55
68177;DHT22;56478;50.982;7.032;2023-01-28T00:16:04;3.49;78.58
68177;DHT22;56478;50.982;7.032;2023-01-28T00:18:31;3.42;78.91
68177;DHT22;56478;50.982;7.032;2023-01-28T00:20:59;3.36;79.21
68177;DHT22;56478;50.982;7.032;2023-01-28T00:23:27;3.36;79.08
68177;DHT22;56478;50.982;7.032;2023-01-28T00:25:53;3.35;79.04
68177;DHT22;56478;50.982;7.032;2023-01-28T00:28:20;3.22;79.09
68177;DHT22;56478;50.982;7.032;2023-01-28T00:30:46;3.22;79.62
68177;DHT22;56478;50.982;7.032;2023-01-28T00:33:12;3.20;79.32
68177;DHT22;56478;50.982;7.032;2023-01-28T00:35:38;3.12;79.62
68177;DHT22;56478;50.982;7.032;2023-01-28T00:38:04;3.07;79.39
68177;DHT22;56478;50.982;7.032;2023-01-28T00:40:30;3.01;79.50
68177;DHT22;56478;50.982;7.032;2023-01-28T00:42:56;3.02;79.48
68177;DHT22;56478;50.982;7.032;2023-01-28T00:45:21;2.94;79.64
68177;DHT22;56478;50.982;7.032;2023-01-28T00:47:47;2.92;79.96
68177;DHT22;56478;50.982;7.032;2023-01-28T00:50:14;2.91;79.91
68177;DHT22;56478;50.982;7.032;2023-01-28T00:52:39;2.91;79.77
68177;DHT22;56478;50.982;7.032;2023-01-28T00:55:06;2.94;79.99
68177;DHT22;56478;50.982;7.032;2023-01-28T00:57:32;2.87;79.80
68177;DHT22;56478;50.982;7.032;2023-01-28T00:59:58;2.81;79.73
68177;DHT22;56478;50.982;7.032;2023-01-28T01:02:24;2.79;80.26
68177;DHT22;56478;50.982;7.032;2023-01-28T01:04:52;2.76;80.23
68177;DHT22;56478;50.982;7.032;2023-01-28T01:07:26;2.68;80.23
68177;DHT22;56478;50.982;7.032;2023-01-28T01:10:16;2.68;79.98
68177;DHT22;56478;50.982;7.032;2023-01-28T01:12:44;2.61;80.47
68177;DHT22;56478;50.982;7.032;2023-01-28T01:15:10;2.57;80.50
68177;DHT22;56478;50.982;7.032;2023-01-28T01:17:37;2.54;80.72
68177;DHT22;56478;50.982;7.032;2023-01-28T01:20:05;2.54;80.89
68177;DHT22;56478;50.982;7.032;2023-01-28T01:22:36;2.52;80.98
68177;DHT22;56478;50.982;7.032;2023-01-28T01:25:04;2.50;80.91
68177;DHT22;56478;50.982;7.032;2023-01-28T01:27:30;2.49;81.09
68177;DHT22;56478;50.982;7.032;2023-01-28T01:29:56;2.43;81.14
68177;DHT22;56478;50.982;7.032;2023-01-28T01:32:24;2.39;81.11
68177;DHT22;56478;50.982;7.032;2023-01-28T01:34:50;2.39;81.01
68177;DHT22;56478;50.982;7.032;2023-01-28T01:37:16;2.29;81.33
68177;DHT22;56478;50.982;7.032;2023-01-28T01:39:42;2.20;81.19
68177;DHT22;56478;50.982;7.032;2023-01-28T01:42:12;2.14;81.62
68177;DHT22;56478;50.982;7.032;2023-01-28T01:45:00;2.17;81.72
68177;DHT22;56478;50.982;7.032;2023-01-28T01:50:37;2.10;81.78
68177;DHT22;56478;50.982;7.032;2023-01-28T01:53:15;2.08;81.70
68177;DHT22;56478;50.982;7.032;2023-01-28T01:55:44;2.14;81.93
68177;DHT22;56478;50.982;7.032;2023-01-28T01:58:18;2.15;82.03
68177;DHT22;56478;50.982;7.032;2023-01-28T02:00:46;2.14;81.80
68177;DHT22;56478;50.982;7.032;2023-01-28T02:03:11;2.10;81.40
68177;DHT22;56478;50.982;7.032;2023-01-28T02:05:38;2.10;81.74
68177;DHT22;56478;50.982;7.032;2023-01-28T02:08:04;2.07;81.70
68177;DHT22;56478;50.982;7.032;2023-01-28T02:10:53;2.07;81.75
68177;DHT22;56478;50.982;7.032;2023-01-28T02:13:22;2.07;81.59
68177;DHT22;56478;50.982;7.032;2023-01-28T02:15:49;1.91;81.79
68177;DHT22;56478;50.982;7.032;2023-01-28T02:18:15;1.98;81.93
68177;DHT22;56478;50.982;7.032;2023-01-28T02:24:23;1.86;81.96
68177;DHT22;56478;50.982;7.032;2023-01-28T02:27:18;1.88;82.00
68177;DHT22;56478;50.982;7.032;2023-01-28T02:29:53;1.87;82.00
68177;DHT22;56478;50.982;7.032;2023-01-28T02:32:26;1.76;82.32
68177;DHT22;56478;50.982;7.032;2023-01-28T02:35:03;1.70;82.43
68177;DHT22;56478;50.982;7.032;2023-01-28T02:37:42;1.71;82.50
68177;DHT22;56478;50.982;7.032;2023-01-28T02:40:12;1.76;82.59
68177;DHT22;56478;50.982;7.032;2023-01-28T02:42:40;1.73;82.56
68177;DHT22;56478;50.982;7.032;2023-01-28T02:45:27;1.73;82.90
68177;DHT22;56478;50.982;7.032;2023-01-28T02:48:12;1.76;82.46
68177;DHT22;56478;50.982;7.032;2023-01-28T02:51:14;1.76;82.32
68177;DHT22;56478;50.982;7.032;2023-01-28T02:53:50;1.67;82.53
68177;DHT22;56478;50.982;7.032;2023-01-28T03:07:41;1.62;82.91
68177;DHT22;56478;50.982;7.032;2023-01-28T03:10:10;1.66;82.84
68177;DHT22;56478;50.982;7.032;2023-01-28T03:12:39;1.70;83.02
68177;DHT22;56478;50.982;7.032;2023-01-28T03:15:45;1.69;82.68
68177;DHT22;56478;50.982;7.032;2023-01-28T03:18:43;1.70;82.59
68177;DHT22;56478;50.982;7.032;2023-01-28T03:21:39;1.66;82.76
68177;DHT22;56478;50.982;7.032;2023-01-28T03:24:56;1.59;82.98
68177;DHT22;56478;50.982;7.032;2023-01-28T03:28:01;1.53;83.15
68177;DHT22;56478;50.982;7.032;2023-01-28T03:31:10;1.55;83.10
68177;DHT22;56478;50.982;7.032;2023-01-28T03:33:55;1.48;82.97
68177;DHT22;56478;50.982;7.032;2023-01-28T03:36:40;1.45;83.06
68177;DHT22;56478;50.982;7.032;2023-01-28T03:39:27;1.43;83.31
68177;DHT22;56478;50.982;7.032;2023-01-28T03:41:59;1.53;83.26
68177;DHT22;56478;50.982;7.032;2023-01-28T03:44:25;1.46;83.15
68177;DHT22;56478;50.982;7.032;2023-01-28T03:47:10;1.43;83.33
68177;DHT22;56478;50.982;7.032;2023-01-28T03:49:41;1.45;83.41
68177;DHT22;56478;50.982;7.032;2023-01-28T03:52:07;1.45;83.37
68177;DHT22;56478;50.982;7.032;2023-01-28T03:54:34;1.38;83.43
68177;DHT22;56478;50.982;7.032;2023-01-28T03:56:59;1.41;83.50
68177;DHT22;56478;50.982;7.032;2023-01-28T03:59:25;1.36;83.29
68177;DHT22;56478;50.982;7.032;2023-01-28T04:01:51;1.34;83.45
68177;DHT22;56478;50.982;7.032;2023-01-28T04:04:16;1.38;83.54
68177;DHT22;56478;50.982;7.032;2023-01-28T04:06:50;1.38;83.32
68177;DHT22;56478;50.982;7.032;2023-01-28T04:09:16;1.43;83.25
68177;DHT22;56478;50.982;7.032;2023-01-28T04:11:42;1.36;83.32
68177;DHT22;56478;50.982;7.032;2023-01-28T04:14:08;1.34;83.01
68177;DHT22;56478;50.982;7.032;2023-01-28T04:16:34;1.34;83.05
68177;DHT22;56478;50.982;7.032;2023-01-28T04:18:59;1.31;82.98
68177;DHT22;56478;50.982;7.032;2023-01-28T04:21:25;1.28;83.43
68177;DHT22;56478;50.982;7.032;2023-01-28T04:23:51;1.30;83.27
68177;DHT22;56478;50.982;7.032;2023-01-28T04:26:16;1.27;83.32
68177;DHT22;56478;50.982;7.032;2023-01-28T04:28:42;1.28;83.14
68177;DHT22;56478;50.982;7.032;2023-01-28T04:31:08;1.34;83.25
68177;DHT22;56478;50.982;7.032;2023-01-28T04:33:33;1.36;83.20
68177;DHT22;56478;50.982;7.032;2023-01-28T04:36:00;1.36;83.30
68177;DHT22;56478;50.982;7.032;2023-01-28T04:38:25;1.41;83.16
68177;DHT22;56478;50.982;7.032;2023-01-28T04:40:52;1.45;83.11
68177;DHT22;56478;50.982;7.032;2023-01-28T04:43:18;1.48;83.30
68177;DHT22;56478;50.982;7.032;2023-01-28T04:45:47;1.59;83.01
68177;DHT22;56478;50.982;7.032;2023-01-28T04:48:14;1.59;82.75
68177;DHT22;56478;50.982;7.032;2023-01-28T04:50:40;1.70;82.58
68177;DHT22;56478;50.982;7.032;2023-01-28T04:53:06;1.71;82.65
68177;DHT22;56478;50.982;7.032;2023-01-28T04:55:32;1.73;82.50
68177;DHT22;56478;50.982;7.032;2023-01-28T04:57:58;1.78;82.52
68177;DHT22;56478;50.982;7.032;2023-01-28T05:00:23;1.86;82.66
68177;DHT22;56478;50.982;7.032;2023-01-28T05:02:49;1.97;81.92
68177;DHT22;56478;50.982;7.032;2023-01-28T05:05:15;2.10;81.89
68177;DHT22;56478;50.982;7.032;2023-01-28T05:07:40;2.17;81.37
68177;DHT22;56478;50.982;7.032;2023-01-28T05:10:07;2.22;80.74
68177;DHT22;56478;50.982;7.032;2023-01-28T05:12:33;2.33;80.00
68177;DHT22;56478;50.982;7.032;2023-01-28T05:14:59;2.38;80.58
68177;DHT22;56478;50.982;7.032;2023-01-28T05:17:26;2.43;79.46
68177;DHT22;56478;50.982;7.032;2023-01-28T05:19:52;2.43;80.05
68177;DHT22;56478;50.982;7.032;2023-01-28T05:22:18;2.42;79.68
68177;DHT22;56478;50.982;7.032;2023-01-28T05:24:44;2.47;80.25
68177;DHT22;56478;50.982;7.032;2023-01-28T05:27:10;2.53;78.93
68177;DHT22;56478;50.982;7.032;2023-01-28T05:29:36;2.52;78.81
68177;DHT22;56478;50.982;7.032;2023-01-28T05:32:02;2.57;79.18
68177;DHT22;56478;50.982;7.032;2023-01-28T05:34:27;2.58;79.15
68177;DHT22;56478;50.982;7.032;2023-01-28T05:36:53;2.60;79.32
68177;DHT22;56478;50.982;7.032;2023-01-28T05:39:19;2.63;79.42
68177;DHT22;56478;50.982;7.032;2023-01-28T05:41:44;2.57;79.80
68177;DHT22;56478;50.982;7.032;2023-01-28T05:44:10;2.64;78.70
68177;DHT22;56478;50.982;7.032;2023-01-28T05:46:36;2.68;78.81
68177;DHT22;56478;50.982;7.032;2023-01-28T05:49:01;2.67;78.89
68177;DHT22;56478;50.982;7.032;2023-01-28T05:51:27;2.66;79.51
68177;DHT22;56478;50.982;7.032;2023-01-28T05:53:53;2.68;79.45
68177;DHT22;56478;50.982;7.032;2023-01-28T05:56:18;2.77;78.68
68177;DHT22;56478;50.982;7.032;2023-01-28T05:58:44;2.80;78.58
68177;DHT22;56478;50.982;7.032;2023-01-28T06:01:09;2.74;78.93
68177;DHT22;56478;50.982;7.032;2023-01-28T06:03:35;2.74;78.55
68177;DHT22;56478;50.982;7.032;2023-01-28T06:06:01;2.83;78.04
68177;DHT22;56478;50.982;7.032;2023-01-28T06:08:27;2.83;77.74
68177;DHT22;56478;50.982;7.032;2023-01-28T06:10:52;2.79;78.53
68177;DHT22;56478;50.982;7.032;2023-01-28T06:13:18;2.81;78.19
68177;DHT22;56478;50.982;7.032;2023-01-28T06:15:44;2.81;77.46
68177;DHT22;56478;50.982;7.032;2023-01-28T06:18:09;2.73;78.68
68177;DHT22;56478;50.982;7.032;2023-01-28T06:20:35;2.74;78.53
68177;DHT22;56478;50.982;7.032;2023-01-28T06:23:01;2.80;77.47
68177;DHT22;56478;50.982;7.032;2023-01-28T06:25:27;2.85;78.41
68177;DHT22;56478;50.982;7.032;2023-01-28T06:27:53;2.84;77.74
68177;DHT22;56478;50.982;7.032;2023-01-28T06:30:19;2.87;78.30
68177;DHT22;56478;50.982;7.032;2023-01-28T06:32:45;2.88;77.75
68177;DHT22;56478;50.982;7.032;2023-01-28T06:35:10;2.88;78.61
68177;DHT22;56478;50.982;7.032;2023-01-28T06:37:36;2.91;77.98
68177;DHT22;56478;50.982;7.032;2023-01-28T06:40:04;2.90;77.54
68177;DHT22;56478;50.982;7.032;2023-01-28T06:42:30;2.91;77.85
68177;DHT22;56478;50.982;7.032;2023-01-28T06:44:55;2.95;77.18
68177;DHT22;56478;50.982;7.032;2023-01-28T06:47:21;2.94;76.28
68177;DHT22;56478;50.982;7.032;2023-01-28T06:49:47;2.97;76.85
68177;DHT22;56478;50.982;7.032;2023-01-28T06:52:13;2.97;76.68
68177;DHT22;56478;50.982;7.032;2023-01-28T06:54:39;3.01;77.15
68177;DHT22;56478;50.982;7.032;2023-01-28T06:57:05;2.98;76.76
68177;DHT22;56478;50.982;7.032;2023-01-28T06:59:31;2.95;77.23
68177;DHT22;56478;50.982;7.032;2023-01-28T07:01:57;3.00;77.22
68177;DHT22;56478;50.982;7.032;2023-01-28T07:04:23;2.94;77.43
68177;DHT22;56478;50.982;7.032;2023-01-28T07:06:50;2.92;77.50
68177;DHT22;56478;50.982;7.032;2023-01-28T07:09:16;2.98;77.22
68177;DHT22;56478;50.982;7.032;2023-01-28T07:11:41;2.92;77.36
68177;DHT22;56478;50.982;7.032;2023-01-28T07:14:07;2.92;77.14
68177;DHT22;56478;50.982;7.032;2023-01-28T07:16:33;2.92;77.47
68177;DHT22;56478;50.982;7.032;2023-01-28T07:18:59;2.91;76.85
68177;DHT22;56478;50.982;7.032;2023-01-28T07:21:24;3.00;76.24
68177;DHT22;56478;50.982;7.032;2023-01-28T07:23:50;2.94;76.33
68177;DHT22;56478;50.982;7.032;2023-01-28T07:26:16;2.98;75.86
68177;DHT22;56478;50.982;7.032;2023-01-28T07:28:41;3.01;76.67
68177;DHT22;56478;50.982;7.032;2023-01-28T07:31:07;2.85;74.44
68177;DHT22;56478;50.982;7.032;2023-01-28T07:33:33;2.90;74.83
68177;DHT22;56478;50.982;7.032;2023-01-28T07:35:59;2.90;74.74
68177;DHT22;56478;50.982;7.032;2023-01-28T07:38:25;2.95;73.62
68177;DHT22;56478;50.982;7.032;2023-01-28T07:40:51;3.05;73.45
68177;DHT22;56478;50.982;7.032;2023-01-28T07:43:16;3.15;72.38
68177;DHT22;56478;50.982;7.032;2023-01-28T07:45:42;3.12;72.43
68177;DHT22;56478;50.982;7.032;2023-01-28T07:48:10;3.16;72.24
68177;DHT22;56478;50.982;7.032;2023-01-28T07:50:37;3.15;71.66
68177;DHT22;56478;50.982;7.032;2023-01-28T07:53:05;3.23;71.71
68177;DHT22;56478;50.982;7.032;2023-01-28T07:55:31;3.28;72.08
68177;DHT22;56478;50.982;7.032;2023-01-28T07:58:00;3.16;72.01
68177;DHT22;56478;50.982;7.032;2023-01-28T08:00:28;3.19;72.63
68177;DHT22;56478;50.982;7.032;2023-01-28T08:02:59;3.12;72.00
68177;DHT22;56478;50.982;7.032;2023-01-28T08:05:46;3.19;72.02
68177;DHT22;56478;50.982;7.032;2023-01-28T08:08:15;3.18;72.63
68177;DHT22;56478;50.982;7.032;2023-01-28T08:10:42;3.23;71.88
68177;DHT22;56478;50.982;7.032;2023-01-28T08:13:09;3.19;72.95
68177;DHT22;56478;50.982;7.032;2023-01-28T08:15:35;3.13;72.67
68177;DHT22;56478;50.982;7.032;2023-01-28T08:18:02;3.22;71.96
68177;DHT22;56478;50.982;7.032;2023-01-28T08:20:29;3.18;72.40
68177;DHT22;56478;50.982;7.032;2023-01-28T08:23:14;3.13;73.77
68177;DHT22;56478;50.982;7.032;2023-01-28T08:25:40;3.09;73.20
68177;DHT22;56478;50.982;7.032;2023-01-28T08:28:07;3.18;73.47
68177;DHT22;56478;50.982;7.032;2023-01-28T08:30:33;3.20;73.25
68177;DHT22;56478;50.982;7.032;2023-01-28T08:33:00;3.19;72.64
68177;DHT22;56478;50.982;7.032;2023-01-28T08:35:27;3.28;71.84
68177;DHT22;56478;50.982;7.032;2023-01-28T08:37:53;3.23;72.41
68177;DHT22;56478;50.982;7.032;2023-01-28T08:40:19;3.16;70.32
68177;DHT22;56478;50.982;7.032;2023-01-28T08:42:52;3.28;69.35
68177;DHT22;56478;50.982;7.032;2023-01-28T08:45:20;3.37;68.41
68177;DHT22;56478;50.982;7.032;2023-01-28T08:47:50;3.32;70.23
68177;DHT22;56478;50.982;7.032;2023-01-28T08:50:16;3.37;68.99
68177;DHT22;56478;50.982;7.032;2023-01-28T08:52:43;3.35;69.34
68177;DHT22;56478;50.982;7.032;2023-01-28T08:55:10;3.37;68.95
68177;DHT22;56478;50.982;7.032;2023-01-28T08:57:36;3.43;68.64
68177;DHT22;56478;50.982;7.032;2023-01-28T09:00:03;3.46;68.89
68177;DHT22;56478;50.982;7.032;2023-01-28T09:02:29;3.46;68.37
68177;DHT22;56478;50.982;7.032;2023-01-28T09:04:55;3.43;69.44
68177;DHT22;56478;50.982;7.032;2023-01-28T09:07:20;3.50;68.81
68177;DHT22;56478;50.982;7.032;2023-01-28T09:09:46;3.57;67.93
68177;DHT22;56478;50.982;7.032;2023-01-28T09:12:12;3.64;68.43
68177;DHT22;56478;50.982;7.032;2023-01-28T09:14:37;3.61;68.37
68177;DHT22;56478;50.982;7.032;2023-01-28T09:17:04;3.63;68.32
68177;DHT22;56478;50.982;7.032;2023-01-28T09:19:29;3.61;68.54
68177;DHT22;56478;50.982;7.032;2023-01-28T09:21:55;3.63;68.16
68177;DHT22;56478;50.982;7.032;2023-01-28T09:24:21;3.61;68.29
68177;DHT22;56478;50.982;7.032;2023-01-28T09:26:50;3.69;68.18
68177;DHT22;56478;50.982;7.032;2023-01-28T09:29:16;3.73;67.80
68177;DHT22;56478;50.982;7.032;2023-01-28T09:31:41;3.59;68.70
68177;DHT22;56478;50.982;7.032;2023-01-28T09:34:08;3.54;66.06
68177;DHT22;56478;50.982;7.032;2023-01-28T09:36:34;3.57;66.69
68177;DHT22;56478;50.982;7.032;2023-01-28T09:39:00;3.66;66.83
68177;DHT22;56478;50.982;7.032;2023-01-28T09:41:52;3.59;65.72
68177;DHT22;56478;50.982;7.032;2023-01-28T09:46:52;3.66;65.43
68177;DHT22;56478;50.982;7.032;2023-01-28T09:49:27;3.57;66.92
68177;DHT22;56478;50.982;7.032;2023-01-28T09:51:56;3.54;67.63
68177;DHT22;56478;50.982;7.032;2023-01-28T09:57:08;3.42;67.47
68177;DHT22;56478;50.982;7.032;2023-01-28T09:59:36;3.35;66.25
68177;DHT22;56478;50.982;7.032;2023-01-28T10:02:17;3.42;66.83
68177;DHT22;56478;50.982;7.032;2023-01-28T10:07:38;3.61;66.83
68177;DHT22;56478;50.982;7.032;2023-01-28T10:13:39;3.67;65.82
68177;DHT22;56478;50.982;7.032;2023-01-28T10:16:29;3.73;65.98
68177;DHT22;56478;50.982;7.032;2023-01-28T10:19:13;3.78;66.67
68177;DHT22;56478;50.982;7.032;2023-01-28T10:21:46;3.88;66.34
68177;DHT22;56478;50.982;7.032;2023-01-28T10:24:18;3.73;65.70
68177;DHT22;56478;50.982;7.032;2023-01-28T10:26:46;3.73;65.77
68177;DHT22;56478;50.982;7.032;2023-01-28T10:29:16;3.74;66.03
68177;DHT22;56478;50.982;7.032;2023-01-28T10:32:15;3.70;65.33
68177;DHT22;56478;50.982;7.032;2023-01-28T10:34:43;3.71;65.47
68177;DHT22;56478;50.982;7.032;2023-01-28T10:37:12;3.81;66.67
68177;DHT22;56478;50.982;7.032;2023-01-28T10:39:38;3.77;65.69
68177;DHT22;56478;50.982;7.032;2023-01-28T10:42:28;3.92;65.98
68177;DHT22;56478;50.982;7.032;2023-01-28T10:45:17;3.85;64.90
68177;DHT22;56478;50.982;7.032;2023-01-28T10:48:00;3.84;65.56
68177;DHT22;56478;50.982;7.032;2023-01-28T10:50:29;3.98;64.79
68177;DHT22;56478;50.982;7.032;2023-01-28T10:53:00;3.99;65.06
68177;DHT22;56478;50.982;7.032;2023-01-28T10:55:29;4.03;64.63
68177;DHT22;56478;50.982;7.032;2023-01-28T10:57:57;3.84;64.63
68177;DHT22;56478;50.982;7.032;2023-01-28T11:00:35;3.75;65.31
68177;DHT22;56478;50.982;7.032;2023-01-28T11:03:01;3.81;65.92
68177;DHT22;56478;50.982;7.032;2023-01-28T11:05:30;3.81;66.02
68177;DHT22;56478;50.982;7.032;2023-01-28T11:08:04;3.84;66.95
68177;DHT22;56478;50.982;7.032;2023-01-28T11:10:33;3.89;65.87
68177;DHT22;56478;50.982;7.032;2023-01-28T11:13:01;3.82;65.79
68177;DHT22;56478;50.982;7.032;2023-01-28T11:15:28;3.81;65.82
68177;DHT22;56478;50.982;7.032;2023-01-28T11:17:59;3.91;66.31
68177;DHT22;56478;50.982;7.032;2023-01-28T11:20:27;4.01;66.67
68177;DHT22;56478;50.982;7.032;2023-01-28T11:22:54;4.03;65.79
68177;DHT22;56478;50.982;7.032;2023-01-28T11:25:33;4.16;64.37
68177;DHT22;56478;50.982;7.032;2023-01-28T11:28:01;4.15;65.81
68177;DHT22;56478;50.982;7.032;2023-01-28T11:30:36;4.09;64.90
68177;DHT22;56478;50.982;7.032;2023-01-28T11:33:18;4.08;64.26
68177;DHT22;56478;50.982;7.032;2023-01-28T11:36:02;4.16;65.25
68177;DHT22;56478;50.982;7.032;2023-01-28T11:38:29;4.17;64.46
68177;DHT22;56478;50.982;7.032;2023-01-28T11:40:57;4.20;64.48
68177;DHT22;56478;50.982;7.032;2023-01-28T11:43:26;4.22;64.63
68177;DHT22;56478;50.982;7.032;2023-01-28T11:51:12;4.15;63.25
68177;DHT22;56478;50.982;7.032;2023-01-28T11:56:52;4.08;65.15
68177;DHT22;56478;50.982;7.032;2023-01-28T12:10:26;4.13;62.20
68177;DHT22;56478;50.982;7.032;2023-01-28T12:13:01;4.05;62.54
68177;DHT22;56478;50.982;7.032;2023-01-28T12:15:43;4.12;62.22
68177;DHT22;56478;50.982;7.032;2023-01-28T12:18:50;4.09;62.07
68177;DHT22;56478;50.982;7.032;2023-01-28T12:26:58;4.10;62.51
68177;DHT22;56478;50.982;7.032;2023-01-28T12:29:50;4.19;61.61
68177;DHT22;56478;50.982;7.032;2023-01-28T12:43:18;4.30;60.69
68177;DHT22;56478;50.982;7.032;2023-01-28T12:46:48;4.30;60.24
68177;DHT22;56478;50.982;7.032;2023-01-28T12:49:07;4.36;61.00
68177;DHT22;56478;50.982;7.032;2023-01-28T12:54:20;4.30;58.80
68177;DHT22;56478;50.982;7.032;2023-01-28T12:56:53;4.12;60.40
68177;DHT22;56478;50.982;7.032;2023-01-28T13:04:59;4.23;60.92
68177;DHT22;56478;50.982;7.032;2023-01-28T13:07:54;4.19;59.30
68177;DHT22;56478;50.982;7.032;2023-01-28T13:10:24;4.26;59.05
68177;DHT22;56478;50.982;7.032;2023-01-28T13:12:52;4.19;59.97
68177;DHT22;56478;50.982;7.032;2023-01-28T13:15:19;4.41;60.76
68177;DHT22;56478;50.982;7.032;2023-01-28T13:17:59;4.60;59.36
68177;DHT22;56478;50.982;7.032;2023-01-28T13:20:49;4.72;57.52
68177;DHT22;56478;50.982;7.032;2023-01-28T13:28:49;4.36;59.25
68177;DHT22;56478;50.982;7.032;2023-01-28T13:31:18;4.50;59.64
68177;DHT22;56478;50.982;7.032;2023-01-28T13:34:00;4.43;59.03
68177;DHT22;56478;50.982;7.032;2023-01-28T13:36:38;4.37;58.38
68177;DHT22;56478;50.982;7.032;2023-01-28T13:39:18;4.41;57.49
68177;DHT22;56478;50.982;7.032;2023-01-28T13:41:47;4.19;58.08
68177;DHT22;56478;50.982;7.032;2023-01-28T13:44:31;4.08;59.66
68177;DHT22;56478;50.982;7.032;2023-01-28T13:49:37;4.01;61.05
68177;DHT22;56478;50.982;7.032;2023-01-28T13:52:36;4.03;61.50
68177;DHT22;56478;50.982;7.032;2023-01-28T14:03:56;4.51;59.25
68177;DHT22;56478;50.982;7.032;2023-01-28T14:20:43;4.08;61.58
68177;DHT22;56478;50.982;7.032;2023-01-28T14:23:21;4.19;60.24
68177;DHT22;56478;50.982;7.032;2023-01-28T14:31:25;4.30;59.89
68177;DHT22;56478;50.982;7.032;2023-01-28T14:33:52;4.34;60.53
68177;DHT22;56478;50.982;7.032;2023-01-28T14:36:18;4.36;60.37
68177;DHT22;56478;50.982;7.032;2023-01-28T14:38:45;4.37;59.90
68177;DHT22;56478;50.982;7.032;2023-01-28T14:41:25;4.37;60.53
68177;DHT22;56478;50.982;7.032;2023-01-28T14:43:53;4.30;60.38
68177;DHT22;56478;50.982;7.032;2023-01-28T14:46:37;4.39;61.58
68177;DHT22;56478;50.982;7.032;2023-01-28T14:49:21;4.39;58.62
68177;DHT22;56478;50.982;7.032;2023-01-28T14:55:10;4.22;59.56
68177;DHT22;56478;50.982;7.032;2023-01-28T14:57:43;4.09;59.62
68177;DHT22;56478;50.982;7.032;2023-01-28T15:00:25;4.06;60.12
68177;DHT22;56478;50.982;7.032;2023-01-28T15:02:51;4.01;60.92
68177;DHT22;56478;50.982;7.032;2023-01-28T15:05:25;4.02;63.08
68177;DHT22;56478;50.982;7.032;2023-01-28T15:07:51;3.92;61.33
68177;DHT22;56478;50.982;7.032;2023-01-28T15:10:20;3.84;61.28
68177;DHT22;56478;50.982;7.032;2023-01-28T15:13:02;3.84;60.67
68177;DHT22;56478;50.982;7.032;2023-01-28T15:15:37;3.77;60.77
68177;DHT22;56478;50.982;7.032;2023-01-28T15:18:17;3.69;60.81
68177;DHT22;56478;50.982;7.032;2023-01-28T15:20:46;3.63;61.10
68177;DHT22;56478;50.982;7.032;2023-01-28T15:23:17;3.60;60.31
68177;DHT22;56478;50.982;7.032;2023-01-28T15:25:45;3.52;61.00
68177;DHT22;56478;50.982;7.032;2023-01-28T15:28:30;3.47;61.09
68177;DHT22;56478;50.982;7.032;2023-01-28T15:30:57;3.43;61.21
68177;DHT22;56478;50.982;7.032;2023-01-28T15:33:24;3.36;62.11
68177;DHT22;56478;50.982;7.032;2023-01-28T15:35:52;3.28;63.70
68177;DHT22;56478;50.982;7.032;2023-01-28T15:38:19;3.26;62.86
68177;DHT22;56478;50.982;7.032;2023-01-28T15:40:49;3.23;61.83
68177;DHT22;56478;50.982;7.032;2023-01-28T15:43:18;3.19;62.41
68177;DHT22;56478;50.982;7.032;2023-01-28T15:45:48;3.15;64.19
68177;DHT22;56478;50.982;7.032;2023-01-28T15:48:15;3.08;65.08
68177;DHT22;56478;50.982;7.032;2023-01-28T15:50:44;3.04;64.99
68177;DHT22;56478;50.982;7.032;2023-01-28T15:53:12;2.98;65.61
68177;DHT22;56478;50.982;7.032;2023-01-28T15:55:43;2.92;67.44
68177;DHT22;56478;50.982;7.032;2023-01-28T15:58:26;2.90;67.12
68177;DHT22;56478;50.982;7.032;2023-01-28T16:03:33;2.81;66.05
68177;DHT22;56478;50.982;7.032;2023-01-28T16:06:06;2.77;66.45
68177;DHT22;56478;50.982;7.032;2023-01-28T16:08:50;2.70;67.01
68177;DHT22;56478;50.982;7.032;2023-01-28T16:11:29;2.60;67.67
68177;DHT22;56478;50.982;7.032;2023-01-28T16:13:56;2.50;68.10
68177;DHT22;56478;50.982;7.032;2023-01-28T16:16:31;2.42;68.20
68177;DHT22;56478;50.982;7.032;2023-01-28T16:18:59;2.38;68.09
68177;DHT22;56478;50.982;7.032;2023-01-28T16:21:30;2.36;68.51
68177;DHT22;56478;50.982;7.032;2023-01-28T16:26:57;2.26;69.38
68177;DHT22;56478;50.982;7.032;2023-01-28T16:29:26;2.24;69.63
68177;DHT22;56478;50.982;7.032;2023-01-28T16:31:52;2.14;70.14
68177;DHT22;56478;50.982;7.032;2023-01-28T16:34:18;2.08;70.93
68177;DHT22;56478;50.982;7.032;2023-01-28T16:36:44;2.05;70.87
68177;DHT22;56478;50.982;7.032;2023-01-28T16:39:09;2.01;70.56
68177;DHT22;56478;50.982;7.032;2023-01-28T16:41:41;1.94;69.96
68177;DHT22;56478;50.982;7.032;2023-01-28T16:44:17;1.90;69.76
68177;DHT22;56478;50.982;7.032;2023-01-28T16:46:42;1.87;70.17
68177;DHT22;56478;50.982;7.032;2023-01-28T16:49:09;1.94;70.59
68177;DHT22;56478;50.982;7.032;2023-01-28T16:51:36;2.03;70.35
68177;DHT22;56478;50.982;7.032;2023-01-28T16:54:02;2.10;70.02
68177;DHT22;56478;50.982;7.032;2023-01-28T16:56:29;2.21;71.33
68177;DHT22;56478;50.982;7.032;2023-01-28T16:58:55;2.26;71.13
68177;DHT22;56478;50.982;7.032;2023-01-28T17:01:21;2.29;70.54
68177;DHT22;56478;50.982;7.032;2023-01-28T17:03:48;2.18;69.23
68177;DHT22;56478;50.982;7.032;2023-01-28T17:06:17;2.14;69.09
68177;DHT22;56478;50.982;7.032;2023-01-28T17:08:43;2.11;70.48
68177;DHT22;56478;50.982;7.032;2023-01-28T17:11:11;2.10;69.82
68177;DHT22;56478;50.982;7.032;2023-01-28T17:13:38;2.00;70.61
68177;DHT22;56478;50.982;7.032;2023-01-28T17:16:04;1.93;69.72
68177;DHT22;56478;50.982;7.032;2023-01-28T17:18:30;1.86;70.47
68177;DHT22;56478;50.982;7.032;2023-01-28T17:21:03;1.78;71.62
68177;DHT22;56478;50.982;7.032;2023-01-28T17:23:29;1.74;71.83
68177;DHT22;56478;50.982;7.032;2023-01-28T17:25:56;1.76;71.70
68177;DHT22;56478;50.982;7.032;2023-01-28T17:28:27;1.67;70.88
68177;DHT22;56478;50.982;7.032;2023-01-28T17:30:52;1.63;71.79
68177;DHT22;56478;50.982;7.032;2023-01-28T17:33:18;1.58;72.34
68177;DHT22;56478;50.982;7.032;2023-01-28T17:35:47;1.55;72.86
68177;DHT22;56478;50.982;7.032;2023-01-28T17:38:13;1.48;72.46
68177;DHT22;56478;50.982;7.032;2023-01-28T17:40:39;1.42;72.75
68177;DHT22;56478;50.982;7.032;2023-01-28T17:43:05;1.35;73.27
68177;DHT22;56478;50.982;7.032;2023-01-28T17:45:31;1.31;73.41
68177;DHT22;56478;50.982;7.032;2023-01-28T17:47:56;1.25;73.14
68177;DHT22;56478;50.982;7.032;2023-01-28T17:50:22;1.25;73.25
68177;DHT22;56478;50.982;7.032;2023-01-28T17:52:55;1.24;73.18
68177;DHT22;56478;50.982;7.032;2023-01-28T17:55:23;1.23;73.45
68177;DHT22;56478;50.982;7.032;2023-01-28T17:57:48;1.28;73.75
68177;DHT22;56478;50.982;7.032;2023-01-28T18:00:14;1.28;72.90
68177;DHT22;56478;50.982;7.032;2023-01-28T18:02:40;1.27;73.22
68177;DHT22;56478;50.982;7.032;2023-01-28T18:05:06;1.20;73.73